createdAt,value
2022-12-11T00:00:42.109Z,-1.56
2022-12-11T00:05:42.113Z,-1.68
2022-12-11T00:10:42.159Z,-1.68
2022-12-11T00:15:42.098Z,-1.5
2022-12-11T00:20:42.100Z,-1.56
2022-12-11T00:25:42.084Z,-1.56
2022-12-11T00:30:42.095Z,-1.43
2022-12-11T00:35:42.082Z,-1.56
2022-12-11T00:40:42.092Z,-1.31
2022-12-11T00:45:42.117Z,-1.43
2022-12-11T00:50:42.099Z,-1.37
2022-12-11T00:55:42.074Z,-1.5
2022-12-11T01:00:42.080Z,-1.56
2022-12-11T01:05:42.086Z,-1.68
2022-12-11T01:10:42.095Z,-1.43
2022-12-11T01:20:42.093Z,-1.31
2022-12-11T01:30:42.137Z,-1.75
2022-12-11T01:35:42.078Z,-1.68
2022-12-11T01:40:42.062Z,-1.5
2022-12-11T01:45:42.182Z,-1.62
2022-12-11T01:50:42.073Z,-1.43
2022-12-11T01:55:42.075Z,-1.68
2022-12-11T02:00:42.064Z,-1.81
2022-12-11T02:30:42.063Z,-1.56
2022-12-11T02:35:42.050Z,-1.75
2022-12-11T02:45:42.157Z,-1.93
2022-12-11T02:50:42.073Z,-1.75
2022-12-11T02:55:42.056Z,-1.93
2022-12-11T03:00:42.079Z,-2.06
2022-12-11T03:05:42.063Z,-2
2022-12-11T03:10:42.167Z,-1.87
2022-12-11T03:15:42.042Z,-1.56
2022-12-11T03:20:42.058Z,-1.81
2022-12-11T03:25:42.051Z,-1.93
2022-12-11T03:30:42.159Z,-2.06
2022-12-11T03:35:42.043Z,-2
2022-12-11T03:40:42.048Z,-2.12
2022-12-11T03:45:42.074Z,-1.87
2022-12-11T03:50:42.065Z,-2.12
2022-12-11T03:55:42.040Z,-2
2022-12-11T04:00:42.066Z,-2
2022-12-11T04:05:42.077Z,-2.06
2022-12-11T04:10:42.063Z,-2
2022-12-11T04:15:42.124Z,-2
2022-12-11T04:20:42.048Z,-2.18
2022-12-11T04:25:42.035Z,-2
2022-12-11T04:30:42.090Z,-2.06
2022-12-11T04:35:42.043Z,-2
2022-12-11T04:40:42.043Z,-1.93
2022-12-11T04:45:42.042Z,-2.25
2022-12-11T04:50:42.039Z,-2.31
2022-12-11T04:55:42.042Z,-2.18
2022-12-11T05:00:42.047Z,-2.37
2022-12-11T05:05:42.039Z,-2.43
2022-12-11T05:10:45.792Z,-2.25
2022-12-11T05:15:42.086Z,-2.43
2022-12-11T05:20:42.054Z,-2.37
2022-12-11T05:25:42.034Z,-2.18
2022-12-11T05:30:42.043Z,-2.25
2022-12-11T05:35:42.048Z,-2.43
2022-12-11T05:40:42.040Z,-2.37
2022-12-11T05:45:42.051Z,-2.56
2022-12-11T05:50:42.049Z,-2.5
2022-12-11T05:55:42.022Z,-2.37
2022-12-11T06:00:42.041Z,-2.68
2022-12-11T06:05:42.038Z,-2.56
2022-12-11T06:10:42.031Z,-2.68
2022-12-11T06:15:42.046Z,-2.37
2022-12-11T06:20:42.027Z,-2.56
2022-12-11T06:25:42.043Z,-2.68
2022-12-11T06:30:42.040Z,-2.62
2022-12-11T06:35:42.643Z,-2.81
2022-12-11T06:40:42.062Z,-2.81
2022-12-11T06:45:42.050Z,-2.87
2022-12-11T06:50:42.029Z,-2.87
2022-12-11T06:55:42.044Z,-2.62
2022-12-11T07:00:42.059Z,-2.62
2022-12-11T07:05:42.040Z,-2.68
2022-12-11T07:10:42.049Z,-3.12
2022-12-11T07:15:42.091Z,-2.62
2022-12-11T07:20:42.019Z,-3
2022-12-11T07:25:42.047Z,-2.75
2022-12-11T07:30:42.028Z,-2.87
2022-12-11T07:35:42.029Z,-2.93
2022-12-11T07:40:42.039Z,-2.81
2022-12-11T07:45:42.059Z,-2.75
2022-12-11T07:50:42.033Z,-2.68
2022-12-11T07:55:42.021Z,-2.81
2022-12-11T08:00:42.042Z,-2.12
2022-12-11T08:05:42.040Z,-2.37
2022-12-11T08:10:42.042Z,-1.87
2022-12-11T08:15:42.025Z,-2.31
2022-12-11T08:20:42.032Z,-2.37
2022-12-11T08:25:42.026Z,-1.5
2022-12-11T08:30:42.104Z,-1.68
2022-12-11T08:35:42.034Z,-1.81
2022-12-11T08:40:42.032Z,-1.5
2022-12-11T08:45:42.064Z,-1.5
2022-12-11T08:50:42.060Z,-1.81
2022-12-11T08:55:42.031Z,-0.93
2022-12-11T09:00:42.046Z,-0.56
2022-12-11T09:05:42.028Z,-1.81
2022-12-11T09:10:42.031Z,-1.68
2022-12-11T09:15:42.068Z,-1.75
2022-12-11T09:20:42.023Z,-0.68
2022-12-11T09:25:42.014Z,-1.18
2022-12-11T09:30:42.127Z,-0.31
2022-12-11T09:40:42.011Z,-0.12
2022-12-11T09:45:42.023Z,0
2022-12-11T09:50:42.038Z,-0.25
2022-12-11T09:55:42.001Z,-0.5
2022-12-11T10:00:42.012Z,-0.62
2022-12-11T10:05:42.006Z,-0.5
2022-12-11T10:10:42.021Z,-0.81
2022-12-11T10:15:42.037Z,-0.75
2022-12-11T10:20:42.028Z,0.37
2022-12-11T10:25:42.009Z,-0.12
2022-12-11T10:35:42.000Z,-1.18
2022-12-11T10:40:41.996Z,-0.5
2022-12-11T10:45:42.001Z,-0.62
2022-12-11T10:50:41.991Z,-0.81
2022-12-11T10:55:41.986Z,-0.43
2022-12-11T11:00:41.994Z,-0.68
2022-12-11T11:05:46.297Z,-0.62
2022-12-11T11:10:41.988Z,-0.43
2022-12-11T11:15:42.040Z,-1.06
2022-12-11T11:20:41.981Z,-0.81
2022-12-11T11:25:41.987Z,-0.56
2022-12-11T11:30:41.997Z,-0.18
2022-12-11T11:35:45.553Z,-1.18
2022-12-11T11:40:41.978Z,-1.37
2022-12-11T11:45:42.010Z,-1.25
2022-12-11T11:50:41.987Z,-0.87
2022-12-11T12:00:41.977Z,-0.75
2022-12-11T12:05:41.975Z,-0.62
2022-12-11T12:10:41.979Z,-0.43
2022-12-11T12:15:41.970Z,-1
2022-12-11T12:20:41.951Z,-1.25
2022-12-11T12:25:41.955Z,-0.18
2022-12-11T12:30:41.962Z,-1
2022-12-11T12:35:41.980Z,-0.93
2022-12-11T12:40:41.948Z,-1.62
2022-12-11T12:45:41.984Z,-2.06
2022-12-11T12:50:41.946Z,-1.25
2022-12-11T12:55:41.962Z,-1.25
2022-12-11T13:00:42.081Z,-1.18
2022-12-11T13:05:41.959Z,-1.75
2022-12-11T13:10:41.951Z,-1.62
2022-12-11T13:15:41.964Z,-1.62
2022-12-11T13:20:41.944Z,-1.68
2022-12-11T13:25:41.953Z,-2.06
2022-12-11T13:30:41.958Z,-2.12
2022-12-11T13:35:41.963Z,-2
2022-12-11T13:40:41.950Z,-2.12
2022-12-11T13:45:41.964Z,-2.12
2022-12-11T13:50:41.948Z,-2.37
2022-12-11T13:55:41.933Z,-1.75
2022-12-11T14:00:41.984Z,-1.62
2022-12-11T14:05:42.238Z,-2.12
2022-12-11T14:10:42.170Z,-1.81
2022-12-11T14:15:41.942Z,-1.87
2022-12-11T14:20:41.946Z,-2.18
2022-12-11T14:25:41.945Z,-1.93
2022-12-11T14:30:41.938Z,-2.68
2022-12-11T14:35:41.954Z,-2.81
2022-12-11T14:40:41.940Z,-2.93
2022-12-11T14:45:41.980Z,-2.62
2022-12-11T14:50:41.955Z,-2.62
2022-12-11T14:55:41.930Z,-3.06
2022-12-11T15:00:41.929Z,-3.06
2022-12-11T15:05:41.941Z,-3.25
2022-12-11T15:10:41.947Z,-3.5
2022-12-11T15:15:41.945Z,-3.43
2022-12-11T15:20:41.949Z,-3.18
2022-12-11T15:25:41.937Z,-3.06
2022-12-11T15:30:41.947Z,-2.75
2022-12-11T15:35:41.935Z,-2.81
2022-12-11T15:40:41.943Z,-3.06
2022-12-11T15:45:41.933Z,-3
2022-12-11T15:50:41.938Z,-3.06
2022-12-11T15:55:41.942Z,-2.93
2022-12-11T16:00:41.995Z,-3.12
2022-12-11T16:05:41.943Z,-2.93
2022-12-11T16:10:41.929Z,-2.5
2022-12-11T16:15:41.993Z,-2.75
2022-12-11T16:20:41.931Z,-2.93
2022-12-11T16:25:42.030Z,-2.75
2022-12-11T16:30:41.969Z,-2.25
2022-12-11T16:35:42.127Z,-2.68
2022-12-11T17:15:42.102Z,-2.93
2022-12-11T17:20:41.929Z,-2.87
2022-12-11T17:25:41.921Z,-2.06
2022-12-11T17:30:41.983Z,-2.87
2022-12-11T17:35:41.956Z,-3.06
2022-12-11T17:40:41.965Z,-3
2022-12-11T17:45:41.931Z,-2.81
2022-12-11T17:50:41.929Z,-3.12
2022-12-11T17:55:41.960Z,-2.93
2022-12-11T18:00:41.934Z,-2.93
2022-12-11T18:05:41.930Z,-2.93
2022-12-11T18:10:41.936Z,-3
2022-12-11T18:15:42.035Z,-3.18
2022-12-11T18:20:41.921Z,-3.12
2022-12-11T18:25:41.921Z,-3.31
2022-12-11T18:30:41.960Z,-3.06
2022-12-11T18:35:41.924Z,-3.25
2022-12-11T18:40:41.930Z,-3.18
2022-12-11T18:45:41.923Z,-3
2022-12-11T18:50:41.936Z,-3.43
2022-12-11T18:55:41.925Z,-3.06
2022-12-11T19:00:41.935Z,-3.37
2022-12-11T19:05:41.924Z,-3.18
2022-12-11T19:10:41.931Z,-2.93
2022-12-11T19:15:41.936Z,-2.93
2022-12-11T19:20:52.314Z,-3.37
2022-12-11T19:25:41.943Z,-3.5
2022-12-11T19:30:41.929Z,-3.25
2022-12-11T19:35:41.949Z,-2.68
2022-12-11T19:40:41.938Z,-3.37
2022-12-11T19:45:41.937Z,-3.31
2022-12-11T19:50:41.929Z,-2.81
2022-12-11T19:55:41.927Z,-3.25
2022-12-11T20:00:41.974Z,-3.37
2022-12-11T20:05:41.956Z,-3.18
2022-12-11T20:10:41.926Z,-3.31
2022-12-11T20:15:41.932Z,-3.5
2022-12-11T20:20:41.929Z,-3.06
2022-12-11T20:25:41.938Z,-2.93
2022-12-11T20:30:41.923Z,-3.43
2022-12-11T20:35:41.937Z,-3.12
2022-12-11T20:40:41.954Z,-3.18
2022-12-11T20:45:41.945Z,-3.43
2022-12-11T20:50:41.936Z,-3.18
2022-12-11T20:55:41.921Z,-2.81
2022-12-11T21:00:41.968Z,-3.5
2022-12-11T21:05:41.942Z,-2.81
2022-12-11T21:10:41.926Z,-3.12
2022-12-11T21:15:41.924Z,-3.18
2022-12-11T21:20:41.938Z,-3.12
2022-12-11T21:25:41.923Z,-3.31
2022-12-11T21:30:41.929Z,-2.87
2022-12-11T21:35:41.932Z,-3.18
2022-12-11T21:40:41.917Z,-3
2022-12-11T21:50:41.937Z,-3.37
2022-12-11T21:55:41.923Z,-2.75
2022-12-11T22:00:42.001Z,-3.31
2022-12-11T22:05:41.958Z,-3.06
2022-12-11T22:10:41.959Z,-3.37
2022-12-11T22:15:41.927Z,-3.43
2022-12-11T22:20:41.928Z,-3.06
2022-12-11T22:25:41.942Z,-3.56
2022-12-11T22:30:41.971Z,-3.5
2022-12-11T22:35:41.920Z,-3.5
2022-12-11T22:40:42.032Z,-3.43
2022-12-11T22:45:42.057Z,-3.43
2022-12-11T22:55:41.978Z,-3.5
2022-12-11T23:00:41.931Z,-2.87
2022-12-11T23:05:41.932Z,-3.12
2022-12-11T23:10:41.936Z,-3.37
2022-12-11T23:15:41.931Z,-3.12
2022-12-11T23:20:41.935Z,-3.06
2022-12-11T23:25:41.932Z,-3.5
2022-12-11T23:30:41.965Z,-3.06
2022-12-11T23:35:41.920Z,-3.62
2022-12-11T23:40:41.927Z,-3.12
2022-12-11T23:45:41.921Z,-3.68
2022-12-11T23:50:41.930Z,-3.68
2022-12-11T23:55:41.916Z,-2.75
